createdAt,value
2019-06-20T00:00:25.813Z,6.50
2019-06-20T00:01:25.792Z,6.30
2019-06-20T00:02:26.036Z,6.30
2019-06-20T00:03:25.782Z,6.20
2019-06-20T00:04:25.758Z,6.00
2019-06-20T00:05:25.952Z,6.50
2019-06-20T00:06:25.747Z,6.90
2019-06-20T00:07:25.774Z,6.70
2019-06-20T00:08:26.159Z,6.80
2019-06-20T00:09:25.715Z,6.70
2019-06-20T00:10:25.704Z,6.90
2019-06-20T00:11:25.681Z,6.60
2019-06-20T00:12:25.885Z,6.50
2019-06-20T00:13:25.675Z,6.70
2019-06-20T00:14:25.650Z,7.10
2019-06-20T00:15:25.892Z,6.60
2019-06-20T00:16:25.643Z,7.00
2019-06-20T00:17:25.623Z,7.00
2019-06-20T00:18:25.607Z,6.80
2019-06-20T00:19:25.773Z,7.20
2019-06-20T00:20:25.588Z,7.10
2019-06-20T00:21:25.574Z,7.00
2019-06-20T00:22:33.564Z,6.90
2019-06-20T00:23:25.843Z,6.70
2019-06-20T00:24:25.558Z,6.50
2019-06-20T00:25:25.527Z,7.30
2019-06-20T00:26:25.916Z,6.80
2019-06-20T00:27:25.502Z,6.80
2019-06-20T00:28:25.491Z,6.70
2019-06-20T00:29:25.785Z,7.10
2019-06-20T00:30:25.493Z,7.20
2019-06-20T00:31:25.463Z,6.90
2019-06-20T00:32:25.762Z,7.20
2019-06-20T00:33:25.441Z,6.80
2019-06-20T00:34:25.441Z,7.10
2019-06-20T00:35:25.760Z,7.70
2019-06-20T00:36:25.427Z,7.30
2019-06-20T00:37:25.402Z,7.50
2019-06-20T00:38:25.757Z,7.80
2019-06-20T00:39:25.375Z,7.30
2019-06-20T00:40:25.372Z,7.40
2019-06-20T00:41:25.668Z,7.50
2019-06-20T00:42:25.352Z,7.70
2019-06-20T00:43:25.336Z,7.50
2019-06-20T00:44:25.605Z,7.30
2019-06-20T00:45:25.345Z,7.70
2019-06-20T00:46:25.300Z,7.40
2019-06-20T00:47:25.611Z,7.80
2019-06-20T00:48:25.269Z,8.30
2019-06-20T00:49:25.257Z,7.50
2019-06-20T00:50:25.592Z,8.10
2019-06-20T00:51:25.272Z,7.20
2019-06-20T00:52:25.224Z,8.10
2019-06-20T00:53:25.536Z,7.80
2019-06-20T00:54:32.691Z,7.60
2019-06-20T00:55:25.524Z,7.60
2019-06-20T00:56:25.443Z,7.80
2019-06-20T00:57:25.178Z,7.90
2019-06-20T00:58:25.212Z,7.70
2019-06-20T00:59:25.443Z,7.40
2019-06-20T01:00:25.145Z,7.30
2019-06-20T01:01:25.124Z,6.80
2019-06-20T01:02:25.474Z,7.00
2019-06-20T01:03:25.106Z,7.30
2019-06-20T01:04:25.102Z,7.60
2019-06-20T01:05:25.389Z,7.50
2019-06-20T01:06:25.088Z,7.60
2019-06-20T01:07:25.061Z,7.80
2019-06-20T01:08:25.362Z,7.90
2019-06-20T01:09:25.036Z,7.70
2019-06-20T01:10:25.061Z,7.50
2019-06-20T01:11:25.403Z,7.60
2019-06-20T01:12:25.010Z,7.80
2019-06-20T01:13:33.427Z,7.20
2019-06-20T01:14:26.336Z,7.80
2019-06-20T01:15:24.972Z,7.90
2019-06-20T01:16:24.966Z,8.00
2019-06-20T01:17:25.334Z,7.80
2019-06-20T01:18:24.943Z,7.80
2019-06-20T01:19:24.922Z,8.10
2019-06-20T01:20:25.220Z,7.70
2019-06-20T01:21:24.915Z,7.80
2019-06-20T01:22:24.897Z,7.80
2019-06-20T01:23:25.212Z,8.10
2019-06-20T01:24:24.875Z,7.50
2019-06-20T01:25:24.858Z,8.20
2019-06-20T01:26:32.336Z,8.10
2019-06-20T01:27:25.158Z,8.20
2019-06-20T01:28:24.837Z,8.40
2019-06-20T01:29:24.881Z,9.60
2019-06-20T01:30:24.806Z,9.50
2019-06-20T01:31:24.800Z,9.50
2019-06-20T01:32:25.115Z,8.40
2019-06-20T01:33:24.773Z,9.60
2019-06-20T01:34:24.770Z,9.00
2019-06-20T01:35:25.083Z,9.30
2019-06-20T01:36:24.780Z,8.80
2019-06-20T01:37:24.735Z,9.20
2019-06-20T01:38:25.001Z,8.50
2019-06-20T01:39:24.710Z,9.40
2019-06-20T01:40:24.701Z,8.90
2019-06-20T01:41:25.029Z,9.30
2019-06-20T01:42:24.682Z,8.50
2019-06-20T01:43:24.657Z,8.50
2019-06-20T01:44:24.964Z,8.70
2019-06-20T01:45:24.648Z,8.70
2019-06-20T01:46:24.623Z,8.90
2019-06-20T01:47:24.985Z,8.40
2019-06-20T01:48:24.608Z,10.10
2019-06-20T01:49:24.592Z,9.50
2019-06-20T01:50:24.871Z,9.30
2019-06-20T01:51:24.570Z,8.90
2019-06-20T01:52:24.569Z,8.60
2019-06-20T01:53:24.894Z,8.90
2019-06-20T01:54:24.538Z,8.60
2019-06-20T01:55:24.560Z,8.60
2019-06-20T01:56:24.846Z,8.40
2019-06-20T01:57:24.508Z,8.10
2019-06-20T01:58:32.453Z,8.60
2019-06-20T01:59:24.802Z,8.80
2019-06-20T02:00:24.474Z,8.20
2019-06-20T02:01:24.461Z,8.60
2019-06-20T02:02:24.455Z,8.30
2019-06-20T02:03:24.441Z,9.00
2019-06-20T02:04:24.768Z,8.50
2019-06-20T02:05:24.424Z,9.00
2019-06-20T02:06:24.446Z,8.60
2019-06-20T02:07:27.994Z,7.90
2019-06-20T02:08:24.385Z,8.40
2019-06-20T02:09:24.375Z,8.30
2019-06-20T02:10:24.704Z,8.40
2019-06-20T02:11:24.350Z,8.90
2019-06-20T02:12:24.344Z,8.40
2019-06-20T02:13:24.617Z,7.50
2019-06-20T02:14:24.335Z,7.50
2019-06-20T02:15:24.313Z,7.90
2019-06-20T02:16:24.291Z,8.50
2019-06-20T02:17:24.633Z,8.80
2019-06-20T02:18:24.274Z,8.20
2019-06-20T02:19:24.264Z,8.90
2019-06-20T02:20:24.646Z,7.90
2019-06-20T02:21:24.237Z,7.90
2019-06-20T02:22:24.235Z,8.40
2019-06-20T02:23:24.530Z,8.30
2019-06-20T02:24:24.434Z,8.90
2019-06-20T02:25:24.209Z,9.50
2019-06-20T02:26:24.497Z,8.70
2019-06-20T02:27:24.168Z,8.50
2019-06-20T02:28:24.159Z,8.10
2019-06-20T02:29:24.487Z,8.20
2019-06-20T02:31:34.246Z,7.30
2019-06-20T02:32:34.191Z,8.30
2019-06-20T02:33:33.894Z,8.40
2019-06-20T02:34:34.163Z,7.60
2019-06-20T02:35:33.867Z,7.60
2019-06-20T02:36:33.859Z,7.70
2019-06-20T02:37:34.133Z,6.70
2019-06-20T02:38:33.830Z,6.80
2019-06-20T02:39:33.822Z,6.90
2019-06-20T02:40:34.152Z,7.30
2019-06-20T02:41:33.837Z,6.70
2019-06-20T02:42:34.103Z,7.10
2019-06-20T02:43:34.143Z,6.50
2019-06-20T02:44:33.763Z,6.60
2019-06-20T02:45:33.760Z,6.90
2019-06-20T02:46:34.057Z,6.80
2019-06-20T02:47:33.764Z,6.70
2019-06-20T02:48:33.721Z,6.80
2019-06-20T02:49:33.840Z,6.60
2019-06-20T02:50:33.692Z,6.50
2019-06-20T02:51:33.686Z,5.70
2019-06-20T02:52:34.006Z,5.60
2019-06-20T02:53:33.678Z,6.10
2019-06-20T02:54:33.648Z,5.90
2019-06-20T02:55:33.909Z,6.90
2019-06-20T02:56:33.627Z,6.50
2019-06-20T02:57:33.616Z,6.20
2019-06-20T02:58:33.964Z,6.30
2019-06-20T02:59:33.593Z,6.80
2019-06-20T03:00:33.580Z,6.60
2019-06-20T03:01:33.904Z,6.60
2019-06-20T03:03:44.184Z,6.80
2019-06-20T03:04:45.725Z,7.40
2019-06-20T03:05:43.813Z,6.70
2019-06-20T03:06:43.845Z,6.40
2019-06-20T03:07:44.108Z,6.90
2019-06-20T03:08:43.788Z,6.70
2019-06-20T03:09:43.787Z,6.70
2019-06-20T03:10:44.043Z,7.20
2019-06-20T03:11:43.749Z,6.70
2019-06-20T03:12:43.736Z,6.80
2019-06-20T03:13:44.028Z,6.70
2019-06-20T03:14:45.669Z,6.80
2019-06-20T03:15:43.729Z,5.90
2019-06-20T03:16:44.027Z,6.70
2019-06-20T03:17:43.680Z,6.30
2019-06-20T03:18:43.710Z,6.40
2019-06-20T03:19:43.901Z,6.10
2019-06-20T03:20:43.680Z,6.60
2019-06-20T03:21:43.626Z,6.40
2019-06-20T03:22:43.847Z,6.80
2019-06-20T03:23:43.611Z,6.60
2019-06-20T03:24:43.597Z,6.10
2019-06-20T03:25:43.881Z,6.70
2019-06-20T03:26:43.584Z,6.50
2019-06-20T03:27:43.610Z,6.50
2019-06-20T03:28:43.767Z,6.70
2019-06-20T03:29:43.541Z,6.60
2019-06-20T03:30:43.537Z,6.50
2019-06-20T03:31:43.944Z,6.40
2019-06-20T03:32:43.511Z,6.50
2019-06-20T03:33:43.512Z,6.40
2019-06-20T03:34:51.032Z,6.00
2019-06-20T03:35:43.710Z,6.30
2019-06-20T03:36:43.476Z,6.00
2019-06-20T03:37:43.460Z,6.20
2019-06-20T03:38:43.723Z,6.30
2019-06-20T03:39:43.766Z,6.20
2019-06-20T03:40:43.538Z,6.20
2019-06-20T03:41:43.415Z,6.20
2019-06-20T03:42:43.732Z,6.20
2019-06-20T03:43:43.394Z,6.30
2019-06-20T03:44:43.386Z,6.40
2019-06-20T03:45:43.685Z,6.60
2019-06-20T03:46:43.357Z,5.80
2019-06-20T03:47:43.382Z,6.20
2019-06-20T03:48:43.668Z,6.50
2019-06-20T03:49:43.595Z,6.30
2019-06-20T03:50:43.312Z,6.20
2019-06-20T03:51:43.558Z,6.20
2019-06-20T03:52:43.287Z,6.10
2019-06-20T03:53:43.279Z,5.80
2019-06-20T03:54:43.501Z,6.00
2019-06-20T03:55:43.258Z,6.30
2019-06-20T03:56:43.245Z,6.40
2019-06-20T03:57:43.539Z,6.20
2019-06-20T03:58:43.255Z,6.40
2019-06-20T03:59:43.205Z,6.40
2019-06-20T04:00:43.523Z,5.90
2019-06-20T04:01:43.191Z,6.90
2019-06-20T04:02:43.173Z,6.70
2019-06-20T04:03:43.514Z,6.50
2019-06-20T04:04:43.156Z,5.70
2019-06-20T04:05:43.135Z,6.10
2019-06-20T04:06:50.635Z,6.00
2019-06-20T04:07:43.479Z,5.70
2019-06-20T04:08:43.470Z,5.60
2019-06-20T04:09:43.131Z,5.90
2019-06-20T04:10:43.081Z,5.60
2019-06-20T04:11:43.354Z,5.70
2019-06-20T04:12:43.065Z,6.10
2019-06-20T04:13:43.163Z,5.80
2019-06-20T04:14:43.320Z,5.90
2019-06-20T04:15:43.074Z,5.80
2019-06-20T04:16:43.022Z,5.90
2019-06-20T04:17:43.337Z,5.30
2019-06-20T04:18:42.999Z,6.00
2019-06-20T04:19:42.992Z,5.60
2019-06-20T04:20:43.355Z,5.30
2019-06-20T04:21:43.000Z,5.70
2019-06-20T04:22:42.956Z,5.60
2019-06-20T04:23:43.203Z,5.80
2019-06-20T04:24:42.936Z,5.70
2019-06-20T04:25:42.915Z,6.30
2019-06-20T04:26:43.223Z,6.10
2019-06-20T04:27:42.909Z,5.70
2019-06-20T04:28:42.883Z,6.10
2019-06-20T04:29:43.125Z,6.00
2019-06-20T04:30:42.869Z,6.50
2019-06-20T04:31:42.860Z,5.60
2019-06-20T04:32:43.166Z,5.90
2019-06-20T04:33:42.842Z,5.50
2019-06-20T04:34:42.825Z,6.10
2019-06-20T04:35:43.171Z,6.40
2019-06-20T04:36:42.837Z,6.10
2019-06-20T04:37:42.800Z,6.00
2019-06-20T04:38:50.142Z,5.90
2019-06-20T04:39:43.133Z,5.90
2019-06-20T04:40:42.756Z,5.80
2019-06-20T04:41:42.743Z,5.40
2019-06-20T04:42:43.048Z,5.50
2019-06-20T04:43:42.722Z,5.80
2019-06-20T04:44:42.713Z,5.80
2019-06-20T04:45:43.018Z,5.60
2019-06-20T04:46:42.701Z,5.50
2019-06-20T04:47:42.725Z,5.60
2019-06-20T04:48:42.927Z,5.90
2019-06-20T04:49:42.656Z,5.60
2019-06-20T04:50:42.645Z,5.40
2019-06-20T04:51:42.637Z,5.60
2019-06-20T04:52:42.933Z,5.10
2019-06-20T04:53:42.624Z,5.40
2019-06-20T04:54:42.604Z,5.40
2019-06-20T04:55:42.946Z,5.40
2019-06-20T04:56:42.592Z,5.50
2019-06-20T04:57:42.571Z,6.00
2019-06-20T04:58:42.921Z,6.00
2019-06-20T04:59:42.560Z,5.40
2019-06-20T05:00:42.539Z,4.80
2019-06-20T05:01:42.544Z,5.10
2019-06-20T05:02:42.517Z,4.80
2019-06-20T05:03:42.799Z,4.70
2019-06-20T05:04:42.509Z,4.80
2019-06-20T05:05:42.479Z,4.80
2019-06-20T05:06:42.768Z,4.90
2019-06-20T05:07:42.465Z,4.80
2019-06-20T05:08:42.445Z,5.00
2019-06-20T05:09:42.753Z,4.70
2019-06-20T05:10:50.444Z,4.70
2019-06-20T05:11:42.740Z,4.70
2019-06-20T05:12:42.413Z,4.90
2019-06-20T05:13:42.483Z,4.40
2019-06-20T05:14:42.424Z,4.90
2019-06-20T05:15:52.126Z,7.30
2019-06-20T05:16:42.710Z,4.80
2019-06-20T05:17:42.354Z,4.70
2019-06-20T05:18:42.350Z,4.70
2019-06-20T05:19:42.676Z,4.90
2019-06-20T05:20:42.378Z,4.70
2019-06-20T05:21:42.317Z,4.60
2019-06-20T05:22:42.620Z,4.50
2019-06-20T05:23:42.292Z,5.00
2019-06-20T05:24:42.279Z,5.00
2019-06-20T05:25:42.556Z,4.80
2019-06-20T05:26:42.283Z,4.70
2019-06-20T05:27:42.242Z,4.90
2019-06-20T05:28:42.526Z,4.90
2019-06-20T05:29:42.266Z,4.90
2019-06-20T05:30:42.210Z,4.80
2019-06-20T05:31:42.492Z,4.90
2019-06-20T05:32:42.186Z,6.70
2019-06-20T05:33:42.172Z,4.90
2019-06-20T05:34:42.451Z,5.30
2019-06-20T05:35:42.159Z,5.10
2019-06-20T05:36:42.156Z,4.90
2019-06-20T05:37:42.413Z,4.80
2019-06-20T05:38:42.127Z,4.90
2019-06-20T05:39:42.113Z,4.80
2019-06-20T05:40:42.406Z,5.10
2019-06-20T05:41:42.459Z,4.50
2019-06-20T05:42:49.490Z,4.50
2019-06-20T05:43:42.394Z,4.80
2019-06-20T05:44:42.055Z,4.30
2019-06-20T05:45:46.164Z,4.40
2019-06-20T05:46:42.045Z,4.10
2019-06-20T05:47:42.028Z,4.40
2019-06-20T05:48:43.218Z,4.30
2019-06-20T05:49:42.001Z,4.20
2019-06-20T05:50:41.992Z,4.30
2019-06-20T05:51:41.982Z,5.70
2019-06-20T05:52:41.975Z,4.50
2019-06-20T05:53:42.280Z,4.20
2019-06-20T05:54:41.945Z,4.50
2019-06-20T05:55:41.935Z,4.20
2019-06-20T05:56:42.150Z,4.30
2019-06-20T05:57:41.918Z,3.40
2019-06-20T05:58:41.916Z,3.70
2019-06-20T05:59:42.183Z,4.00
2019-06-20T06:00:41.893Z,3.60
2019-06-20T06:01:41.878Z,3.70
2019-06-20T06:02:41.865Z,3.60
2019-06-20T06:03:41.850Z,3.80
2019-06-20T06:04:42.944Z,3.60
2019-06-20T06:05:41.827Z,3.60
2019-06-20T06:06:41.817Z,3.70
2019-06-20T06:07:42.059Z,3.80
2019-06-20T06:08:41.793Z,3.70
2019-06-20T06:09:41.819Z,4.50
2019-06-20T06:10:42.073Z,4.30
2019-06-20T06:11:41.811Z,3.50
2019-06-20T06:12:41.755Z,3.20
2019-06-20T06:13:41.965Z,3.40
2019-06-20T06:14:49.519Z,3.30
2019-06-20T06:15:42.457Z,3.20
2019-06-20T06:16:44.117Z,3.30
2019-06-20T06:17:42.113Z,3.50
2019-06-20T06:18:41.716Z,3.00
2019-06-20T06:19:41.691Z,3.40
2019-06-20T06:20:44.815Z,3.30
2019-06-20T06:21:41.722Z,3.40
2019-06-20T06:22:44.620Z,3.30
2019-06-20T06:23:41.957Z,3.30
2019-06-20T06:24:41.625Z,3.40
2019-06-20T06:25:41.629Z,3.20
2019-06-20T06:26:41.945Z,3.20
2019-06-20T06:27:41.638Z,3.70
2019-06-20T06:28:41.575Z,3.40
2019-06-20T06:29:41.901Z,3.60
2019-06-20T06:30:41.559Z,3.10
2019-06-20T06:31:41.563Z,3.20
2019-06-20T06:32:41.836Z,3.00
2019-06-20T06:33:41.529Z,2.90
2019-06-20T06:34:41.509Z,3.10
2019-06-20T06:35:41.854Z,3.30
2019-06-20T06:36:41.531Z,3.10
2019-06-20T06:37:41.475Z,6.50
2019-06-20T06:38:41.799Z,3.50
2019-06-20T06:39:43.513Z,3.40
2019-06-20T06:40:41.444Z,3.30
2019-06-20T06:41:41.755Z,3.60
2019-06-20T06:42:41.440Z,3.40
2019-06-20T06:43:42.205Z,3.40
2019-06-20T06:44:41.671Z,4.50
2019-06-20T06:45:41.396Z,3.90
2019-06-20T06:46:55.443Z,3.20
2019-06-20T06:47:41.704Z,3.10
2019-06-20T06:48:41.687Z,3.30
2019-06-20T06:49:41.353Z,3.30
2019-06-20T06:50:41.401Z,3.30
2019-06-20T06:51:41.666Z,2.80
2019-06-20T06:52:41.337Z,3.00
2019-06-20T06:53:41.317Z,3.10
2019-06-20T06:54:41.593Z,3.30
2019-06-20T06:55:41.296Z,3.20
2019-06-20T06:56:41.276Z,3.60
2019-06-20T06:57:41.535Z,3.00
2019-06-20T06:58:41.295Z,3.20
2019-06-20T06:59:41.256Z,3.30
2019-06-20T07:00:41.547Z,3.20
2019-06-20T07:01:41.230Z,3.20
2019-06-20T07:02:41.223Z,3.50
2019-06-20T07:03:41.211Z,3.30
2019-06-20T07:04:41.207Z,2.90
2019-06-20T07:05:42.002Z,3.00
2019-06-20T07:06:41.180Z,2.90
2019-06-20T07:07:41.169Z,2.90
2019-06-20T07:08:41.148Z,3.10
2019-06-20T07:09:41.256Z,3.10
2019-06-20T07:10:41.131Z,4.40
2019-06-20T07:11:41.430Z,3.40
2019-06-20T07:12:41.112Z,3.00
2019-06-20T07:13:41.096Z,3.10
2019-06-20T07:14:42.841Z,2.90
2019-06-20T07:15:41.100Z,3.00
2019-06-20T07:16:41.068Z,4.40
2019-06-20T07:17:41.398Z,2.80
2019-06-20T07:18:48.962Z,2.80
2019-06-20T07:19:41.332Z,2.80
2019-06-20T07:20:41.027Z,3.10
2019-06-20T07:21:41.036Z,2.50
2019-06-20T07:22:41.284Z,3.40
2019-06-20T07:23:40.989Z,2.80
2019-06-20T07:24:40.983Z,2.80
2019-06-20T07:25:41.253Z,2.50
2019-06-20T07:26:40.961Z,2.70
2019-06-20T07:27:40.985Z,2.20
2019-06-20T07:28:41.230Z,2.50
2019-06-20T07:29:40.926Z,2.50
2019-06-20T07:30:41.288Z,2.40
2019-06-20T07:31:40.909Z,2.50
2019-06-20T07:32:40.894Z,2.40
2019-06-20T07:33:41.257Z,3.90
2019-06-20T07:34:40.877Z,2.60
2019-06-20T07:35:41.980Z,2.40
2019-06-20T07:36:41.216Z,2.60
2019-06-20T07:37:40.838Z,2.50
2019-06-20T07:38:40.831Z,2.60
2019-06-20T07:39:41.142Z,2.50
2019-06-20T07:40:40.809Z,2.50
2019-06-20T07:41:40.794Z,2.60
2019-06-20T07:42:41.083Z,3.50
2019-06-20T07:43:40.780Z,2.70
2019-06-20T07:44:40.760Z,2.90
2019-06-20T07:45:41.090Z,2.90
2019-06-20T07:46:40.771Z,2.80
2019-06-20T07:47:40.739Z,2.90
2019-06-20T07:48:41.070Z,2.70
2019-06-20T07:49:40.709Z,2.70
2019-06-20T07:50:48.141Z,3.10
2019-06-20T07:51:41.050Z,2.70
2019-06-20T07:52:40.688Z,2.70
2019-06-20T07:53:40.682Z,3.30
2019-06-20T07:54:40.970Z,3.00
2019-06-20T07:55:40.641Z,2.90
2019-06-20T07:56:40.637Z,2.80
2019-06-20T07:57:40.941Z,2.70
2019-06-20T07:58:40.618Z,2.40
2019-06-20T07:59:40.646Z,2.60
2019-06-20T08:00:40.873Z,2.50
2019-06-20T08:01:40.632Z,2.70
2019-06-20T08:02:40.566Z,2.90
2019-06-20T08:03:44.438Z,2.70
2019-06-20T08:04:40.545Z,2.80
2019-06-20T08:05:40.547Z,2.70
2019-06-20T08:06:40.828Z,2.70
2019-06-20T08:07:40.521Z,3.10
2019-06-20T08:08:40.540Z,2.80
2019-06-20T08:09:44.691Z,2.80
2019-06-20T08:10:40.497Z,2.90
2019-06-20T08:11:40.754Z,2.70
2019-06-20T08:12:40.469Z,2.70
2019-06-20T08:13:40.454Z,3.20
2019-06-20T08:15:40.425Z,2.60
2019-06-20T08:16:40.424Z,2.80
2019-06-20T08:17:40.701Z,2.60
2019-06-20T08:18:40.403Z,2.90
2019-06-20T08:19:40.395Z,2.60
2019-06-20T08:20:40.751Z,2.60
2019-06-20T08:21:40.394Z,2.40
2019-06-20T08:22:47.865Z,2.60
2019-06-20T08:23:40.624Z,2.50
2019-06-20T08:24:40.661Z,2.40
2019-06-20T08:25:40.365Z,2.40
2019-06-20T08:26:40.323Z,2.40
2019-06-20T08:27:40.608Z,2.50
2019-06-20T08:28:40.298Z,2.70
2019-06-20T08:29:40.290Z,2.30
2019-06-20T08:30:40.552Z,2.30
2019-06-20T08:31:40.285Z,2.40
2019-06-20T08:32:40.253Z,2.40
2019-06-20T08:33:40.619Z,2.30
2019-06-20T08:34:40.235Z,2.30
2019-06-20T08:35:40.221Z,2.10
2019-06-20T08:36:40.559Z,2.20
2019-06-20T08:37:40.200Z,2.30
2019-06-20T08:38:40.227Z,2.20
2019-06-20T08:39:40.506Z,2.50
2019-06-20T08:40:40.174Z,2.40
2019-06-20T08:41:40.157Z,2.30
2019-06-20T08:42:40.469Z,2.40
2019-06-20T08:43:40.145Z,2.40
2019-06-20T08:44:40.137Z,2.50
2019-06-20T08:45:40.465Z,2.20
2019-06-20T08:46:40.132Z,2.50
2019-06-20T08:47:40.120Z,3.20
2019-06-20T08:48:40.390Z,3.00
2019-06-20T08:49:40.110Z,2.30
2019-06-20T08:50:40.075Z,2.20
2019-06-20T08:51:40.339Z,2.60
2019-06-20T08:52:40.042Z,2.30
2019-06-20T08:53:40.034Z,2.50
2019-06-20T08:54:47.633Z,2.30
2019-06-20T08:55:40.278Z,2.30
2019-06-20T08:56:40.313Z,2.90
2019-06-20T08:57:39.994Z,2.40
2019-06-20T08:58:39.983Z,2.30
2019-06-20T08:59:40.309Z,2.40
2019-06-20T09:00:39.979Z,2.50
2019-06-20T09:01:39.952Z,2.40
2019-06-20T09:02:40.194Z,2.30
2019-06-20T09:03:39.929Z,2.40
2019-06-20T09:04:39.923Z,2.50
2019-06-20T09:05:40.240Z,2.70
2019-06-20T09:06:39.898Z,2.50
2019-06-20T09:07:41.777Z,2.60
2019-06-20T09:08:40.255Z,2.60
2019-06-20T09:09:40.834Z,2.40
2019-06-20T09:10:39.865Z,2.50
2019-06-20T09:11:40.121Z,2.50
2019-06-20T09:12:39.840Z,2.50
2019-06-20T09:13:40.676Z,2.70
2019-06-20T09:14:40.121Z,2.40
2019-06-20T09:15:39.842Z,2.40
2019-06-20T09:16:39.791Z,2.80
2019-06-20T09:17:40.110Z,2.30
2019-06-20T09:18:39.772Z,2.50
2019-06-20T09:19:39.762Z,2.70
2019-06-20T09:20:40.029Z,2.70
2019-06-20T09:21:39.796Z,2.90
2019-06-20T09:22:39.724Z,2.50
2019-06-20T09:23:40.081Z,2.60
2019-06-20T09:24:39.712Z,2.80
2019-06-20T09:25:39.705Z,2.70
2019-06-20T09:26:47.683Z,2.70
2019-06-20T09:27:40.028Z,2.50
2019-06-20T09:28:39.664Z,2.80
2019-06-20T09:29:42.049Z,2.80
2019-06-20T09:30:39.862Z,2.20
2019-06-20T09:31:39.646Z,2.60
2019-06-20T09:32:39.633Z,2.60
2019-06-20T09:33:40.007Z,2.60
2019-06-20T09:34:39.601Z,2.50
2019-06-20T09:35:39.589Z,2.30
2019-06-20T09:36:39.918Z,2.70
2019-06-20T09:37:39.580Z,4.20
2019-06-20T09:38:39.572Z,3.20
2019-06-20T09:39:39.858Z,2.60
2019-06-20T09:40:39.539Z,2.60
2019-06-20T09:41:39.531Z,2.90
2019-06-20T09:42:39.844Z,2.50
2019-06-20T09:43:39.519Z,3.80
2019-06-20T09:44:39.502Z,2.70
2019-06-20T09:45:39.485Z,2.80
2019-06-20T09:46:39.478Z,2.70
2019-06-20T09:47:39.859Z,2.70
2019-06-20T09:48:39.460Z,2.90
2019-06-20T09:49:39.458Z,2.90
2019-06-20T09:50:39.778Z,3.00
2019-06-20T09:51:39.432Z,2.70
2019-06-20T09:52:39.414Z,2.80
2019-06-20T09:53:39.760Z,2.90
2019-06-20T09:54:39.396Z,3.30
2019-06-20T09:55:39.383Z,2.90
2019-06-20T09:56:39.682Z,2.90
2019-06-20T09:57:39.368Z,2.60
2019-06-20T09:58:47.906Z,2.80
2019-06-20T09:59:39.640Z,3.00
2019-06-20T10:00:39.329Z,3.00
2019-06-20T10:01:39.444Z,3.70
2019-06-20T10:02:39.310Z,3.60
2019-06-20T10:03:39.331Z,2.50
2019-06-20T10:04:39.632Z,2.70
2019-06-20T10:05:39.282Z,2.50
2019-06-20T10:06:39.273Z,2.70
2019-06-20T10:07:39.584Z,3.00
2019-06-20T10:08:39.249Z,2.80
2019-06-20T10:09:39.412Z,2.90
2019-06-20T10:10:39.640Z,2.80
2019-06-20T10:11:39.220Z,4.00
2019-06-20T10:12:39.205Z,2.90
2019-06-20T10:13:39.489Z,2.90
2019-06-20T10:14:39.197Z,2.70
2019-06-20T10:15:39.172Z,3.00
2019-06-20T10:16:45.852Z,2.70
2019-06-20T10:17:39.148Z,3.30
2019-06-20T10:18:39.139Z,3.00
2019-06-20T10:19:39.129Z,2.70
2019-06-20T10:20:39.396Z,2.80
2019-06-20T10:21:39.441Z,2.70
2019-06-20T10:22:39.099Z,2.70
2019-06-20T10:23:39.111Z,2.80
2019-06-20T10:24:39.412Z,2.70
2019-06-20T10:25:39.073Z,2.90
2019-06-20T10:26:39.068Z,3.70
2019-06-20T10:27:39.389Z,2.70
2019-06-20T10:28:39.035Z,2.70
2019-06-20T10:29:39.024Z,2.60
2019-06-20T10:30:46.524Z,2.70
2019-06-20T10:31:39.321Z,2.40
2019-06-20T10:32:38.993Z,2.60
2019-06-20T10:33:38.989Z,2.50
2019-06-20T10:34:39.283Z,2.70
2019-06-20T10:35:38.966Z,2.50
2019-06-20T10:36:38.967Z,2.60
2019-06-20T10:37:39.225Z,2.50
2019-06-20T10:38:38.938Z,2.20
2019-06-20T10:39:38.928Z,2.20
2019-06-20T10:40:39.231Z,2.40
2019-06-20T10:41:38.909Z,2.10
2019-06-20T10:42:38.909Z,2.50
2019-06-20T10:43:39.225Z,2.30
2019-06-20T10:44:38.874Z,2.60
2019-06-20T10:45:38.856Z,2.50
2019-06-20T10:46:39.173Z,2.30
2019-06-20T10:47:38.855Z,2.50
2019-06-20T10:48:38.833Z,2.40
2019-06-20T10:49:39.152Z,2.40
2019-06-20T10:50:38.817Z,2.40
2019-06-20T10:51:38.796Z,2.50
2019-06-20T10:52:39.099Z,2.60
2019-06-20T10:53:38.784Z,2.50
2019-06-20T10:54:38.780Z,2.60
2019-06-20T10:55:40.596Z,2.50
2019-06-20T10:56:38.744Z,2.60
2019-06-20T10:57:41.326Z,2.50
2019-06-20T10:58:41.464Z,2.20
2019-06-20T10:59:39.893Z,2.70
2019-06-20T11:00:40.038Z,2.70
2019-06-20T11:01:39.868Z,2.20
2019-06-20T11:02:47.055Z,2.20
2019-06-20T11:03:39.285Z,2.20
2019-06-20T11:04:40.494Z,4.50
2019-06-20T11:05:39.301Z,2.30
2019-06-20T11:06:39.879Z,2.30
2019-06-20T11:07:40.343Z,2.20
2019-06-20T11:08:39.139Z,2.40
2019-06-20T11:09:40.170Z,2.20
2019-06-20T11:10:40.349Z,2.50
2019-06-20T11:11:39.862Z,2.70
2019-06-20T11:12:45.613Z,2.40
2019-06-20T11:13:39.519Z,2.40
2019-06-20T11:14:39.129Z,2.40
2019-06-20T11:15:39.253Z,2.40
2019-06-20T11:16:40.108Z,2.30
2019-06-20T11:17:39.176Z,2.70
2019-06-20T11:18:39.966Z,2.70
2019-06-20T11:19:39.730Z,2.40
2019-06-20T11:20:39.497Z,2.70
2019-06-20T11:21:39.759Z,2.50
2019-06-20T11:22:39.877Z,2.70
2019-06-20T11:23:39.413Z,2.50
2019-06-20T11:24:39.214Z,2.30
2019-06-20T11:25:40.170Z,2.50
2019-06-20T11:26:39.385Z,2.60
2019-06-20T11:27:38.753Z,2.30
2019-06-20T11:28:39.293Z,2.70
2019-06-20T11:29:38.408Z,2.60
2019-06-20T11:30:53.491Z,3.30
2019-06-20T11:31:43.416Z,2.70
2019-06-20T11:32:39.418Z,2.60
2019-06-20T11:33:39.033Z,2.50
2019-06-20T11:34:47.553Z,2.30
2019-06-20T11:35:39.288Z,2.40
2019-06-20T11:36:38.735Z,6.20
2019-06-20T11:37:39.633Z,2.60
2019-06-20T11:38:39.613Z,2.20
2019-06-20T11:39:38.904Z,2.30
2019-06-20T11:40:39.661Z,2.30
2019-06-20T11:41:39.578Z,2.30
2019-06-20T11:42:38.268Z,2.40
2019-06-20T11:43:38.449Z,2.40
2019-06-20T11:44:38.923Z,2.40
2019-06-20T11:45:38.927Z,2.60
2019-06-20T11:46:38.576Z,2.70
2019-06-20T11:47:38.480Z,2.60
2019-06-20T11:48:38.490Z,2.60
2019-06-20T11:49:38.237Z,2.60
2019-06-20T11:50:39.924Z,2.50
2019-06-20T11:51:38.174Z,2.80
2019-06-20T11:52:41.045Z,3.80
2019-06-20T11:53:38.583Z,3.30
2019-06-20T11:54:38.288Z,3.30
2019-06-20T11:55:38.132Z,2.90
2019-06-20T11:56:38.428Z,2.70
2019-06-20T11:57:38.125Z,2.80
2019-06-20T11:58:38.114Z,2.70
2019-06-20T11:59:38.471Z,2.80
2019-06-20T12:00:38.089Z,2.90
2019-06-20T12:01:39.588Z,4.20
2019-06-20T12:02:40.499Z,3.80
2019-06-20T12:03:39.195Z,2.70
2019-06-20T12:04:38.249Z,2.50
2019-06-20T12:05:38.461Z,2.50
2019-06-20T12:06:47.047Z,2.60
2019-06-20T12:07:39.555Z,2.50
2019-06-20T12:08:39.083Z,2.50
2019-06-20T12:09:39.565Z,3.70
2019-06-20T12:10:39.226Z,2.50
2019-06-20T12:11:39.077Z,2.60
2019-06-20T12:12:39.060Z,2.40
2019-06-20T12:13:39.336Z,2.70
2019-06-20T12:14:39.407Z,2.60
2019-06-20T12:15:38.028Z,2.60
2019-06-20T12:16:39.167Z,2.70
2019-06-20T12:17:38.197Z,2.40
2019-06-20T12:18:39.760Z,2.50
2019-06-20T12:19:39.339Z,2.60
2019-06-20T12:20:39.179Z,3.80
2019-06-20T12:21:37.981Z,2.60
2019-06-20T12:22:38.290Z,2.70
2019-06-20T12:23:39.016Z,3.00
2019-06-20T12:24:39.570Z,2.80
2019-06-20T12:25:39.065Z,2.80
2019-06-20T12:26:38.946Z,2.80
2019-06-20T12:27:38.832Z,2.70
2019-06-20T12:28:39.081Z,2.70
2019-06-20T12:29:39.313Z,2.80
2019-06-20T12:30:39.767Z,3.00
2019-06-20T12:31:37.753Z,2.90
2019-06-20T12:32:39.132Z,2.80
2019-06-20T12:33:39.095Z,2.90
2019-06-20T12:34:38.818Z,2.80
2019-06-20T12:35:39.168Z,2.70
2019-06-20T12:36:38.096Z,2.60
2019-06-20T12:37:37.686Z,2.70
2019-06-20T12:38:46.291Z,2.70
2019-06-20T12:39:39.216Z,2.70
2019-06-20T12:40:39.157Z,2.70
2019-06-20T12:41:39.594Z,2.60
2019-06-20T12:42:39.140Z,2.80
2019-06-20T12:43:39.068Z,2.60
2019-06-20T12:44:39.014Z,2.60
2019-06-20T12:45:38.233Z,2.70
2019-06-20T12:46:39.377Z,2.30
2019-06-20T12:47:38.805Z,2.40
2019-06-20T12:48:38.126Z,2.70
2019-06-20T12:49:38.963Z,2.50
2019-06-20T12:50:38.502Z,2.70
2019-06-20T12:51:39.090Z,2.20
2019-06-20T12:52:38.917Z,2.50
2019-06-20T12:53:38.748Z,2.60
2019-06-20T12:54:38.149Z,2.20
2019-06-20T12:55:38.937Z,2.50
2019-06-20T12:56:38.665Z,2.10
2019-06-20T12:57:38.624Z,2.70
2019-06-20T12:58:39.017Z,2.40
2019-06-20T12:59:38.046Z,2.40
2019-06-20T13:00:39.092Z,2.30
2019-06-20T13:01:42.781Z,2.80
2019-06-20T13:02:38.646Z,2.10
2019-06-20T13:03:38.634Z,2.30
2019-06-20T13:04:38.788Z,2.80
2019-06-20T13:05:38.462Z,2.10
2019-06-20T13:06:37.671Z,2.20
2019-06-20T13:07:38.726Z,2.40
2019-06-20T13:08:40.194Z,2.50
2019-06-20T13:09:39.448Z,2.50
2019-06-20T13:10:46.175Z,2.30
2019-06-20T13:11:39.002Z,2.40
2019-06-20T13:12:37.652Z,2.50
2019-06-20T13:13:38.824Z,2.40
2019-06-20T13:14:39.208Z,2.60
2019-06-20T13:15:37.659Z,2.40
2019-06-20T13:16:38.867Z,2.50
2019-06-20T13:17:39.284Z,2.80
2019-06-20T13:18:37.257Z,2.60
2019-06-20T13:19:38.626Z,2.60
2019-06-20T13:20:38.794Z,2.50
2019-06-20T13:21:38.751Z,2.40